createdAt,value
2023-05-08T00:00:19.267Z,14.60
2023-05-08T00:02:47.951Z,14.60
2023-05-08T00:05:16.005Z,14.60
2023-05-08T00:07:44.973Z,14.60
2023-05-08T00:10:13.705Z,14.70
2023-05-08T00:12:43.884Z,14.70
2023-05-08T00:15:12.467Z,14.70
2023-05-08T00:17:40.881Z,14.70
2023-05-08T00:20:10.950Z,14.70
2023-05-08T00:22:39.095Z,14.70
2023-05-08T00:25:09.378Z,14.80
2023-05-08T00:27:37.479Z,14.80
2023-05-08T00:30:09.412Z,14.80
2023-05-08T00:32:38.097Z,14.80
2023-05-08T00:35:07.294Z,14.80
2023-05-08T00:37:35.346Z,14.70
2023-05-08T00:40:04.029Z,14.70
2023-05-08T00:42:32.040Z,14.70
2023-05-08T00:45:00.043Z,14.70
2023-05-08T00:47:31.486Z,14.70
2023-05-08T00:50:00.655Z,14.70
2023-05-08T00:52:32.018Z,14.70
2023-05-08T00:55:02.067Z,14.70
2023-05-08T00:57:35.841Z,14.60
2023-05-08T01:00:07.473Z,14.60
2023-05-08T01:02:37.703Z,14.60
2023-05-08T01:05:07.562Z,14.70
2023-05-08T01:07:36.013Z,14.70
2023-05-08T01:10:04.588Z,14.70
2023-05-08T01:12:54.174Z,14.70
2023-05-08T01:15:32.839Z,14.70
2023-05-08T01:18:17.010Z,14.70
2023-05-08T01:20:52.863Z,14.70
2023-05-08T01:24:31.488Z,14.70
2023-05-08T01:27:46.920Z,14.60
2023-05-08T01:30:56.476Z,14.60
2023-05-08T01:33:35.683Z,14.60
2023-05-08T01:36:20.113Z,14.60
2023-05-08T01:39:02.110Z,14.60
2023-05-08T01:41:35.483Z,14.60
2023-05-08T02:42:02.378Z,14.20
2023-05-08T02:44:30.970Z,14.10
2023-05-08T02:47:16.146Z,14.10
2023-05-08T02:49:54.533Z,14.10
2023-05-08T02:52:32.189Z,14.10
2023-05-08T02:55:08.493Z,14.20
2023-05-08T02:57:51.325Z,14.10
2023-05-08T03:00:24.523Z,14.10
2023-05-08T03:03:02.194Z,14.10
2023-05-08T03:05:35.059Z,14.20
2023-05-08T03:08:11.351Z,14.20
2023-05-08T03:10:43.850Z,14.20
2023-05-08T03:13:16.906Z,14.30
2023-05-08T03:15:51.612Z,14.30
2023-05-08T03:18:24.289Z,14.30
2023-05-08T03:20:57.580Z,14.30
2023-05-08T03:23:30.434Z,14.40
2023-05-08T03:26:01.687Z,14.40
2023-05-08T03:28:33.853Z,14.40
2023-05-08T03:31:03.161Z,14.40
2023-05-08T03:33:33.338Z,14.40
2023-05-08T03:36:02.395Z,14.40
2023-05-08T03:38:30.650Z,14.40
2023-05-08T03:41:00.998Z,14.50
2023-05-08T03:43:32.794Z,14.40
2023-05-08T03:46:02.430Z,14.40
2023-05-08T03:48:33.567Z,14.40
2023-05-08T03:51:04.081Z,14.50
2023-05-08T03:53:35.172Z,14.50
2023-05-08T03:56:05.160Z,14.50
2023-05-08T03:58:45.804Z,14.50
2023-05-08T04:01:26.540Z,14.50
2023-05-08T04:04:08.723Z,14.50
2023-05-08T04:06:50.081Z,14.50
2023-05-08T04:09:35.968Z,14.50
2023-05-08T04:21:51.511Z,14.50
2023-05-08T04:24:22.725Z,14.50
2023-05-08T04:26:52.926Z,14.50
2023-05-08T04:29:22.864Z,14.50
2023-05-08T04:31:51.768Z,14.50
2023-05-08T04:34:21.442Z,14.50
2023-05-08T04:36:51.300Z,14.50
2023-05-08T04:39:20.069Z,14.50
2023-05-08T04:41:49.028Z,14.50
2023-05-08T04:44:17.341Z,14.50
2023-05-08T04:46:46.196Z,14.50
2023-05-08T04:49:14.378Z,14.60
2023-05-08T04:51:43.158Z,14.60
2023-05-08T04:54:12.940Z,14.60
2023-05-08T04:56:41.048Z,14.60
2023-05-08T04:59:09.172Z,14.60
2023-05-08T05:01:37.337Z,14.70
2023-05-08T05:04:06.328Z,14.70
2023-05-08T05:06:34.666Z,14.70
2023-05-08T05:09:03.580Z,14.70
2023-05-08T05:11:33.948Z,14.70
2023-05-08T05:14:02.411Z,14.80
2023-05-08T05:16:30.562Z,14.80
2023-05-08T05:18:58.947Z,14.80
2023-05-08T05:21:27.971Z,14.90
2023-05-08T05:23:56.687Z,14.90
2023-05-08T05:26:25.345Z,15.00
2023-05-08T05:28:55.194Z,15.00
2023-05-08T05:31:23.447Z,15.10
2023-05-08T05:33:52.262Z,15.10
2023-05-08T05:36:20.981Z,15.10
2023-05-08T05:38:49.206Z,15.10
2023-05-08T05:41:17.692Z,15.10
2023-05-08T05:43:46.388Z,15.10
2023-05-08T05:46:16.514Z,15.10
2023-05-08T05:48:44.749Z,15.10
2023-05-08T05:51:14.274Z,15.20
2023-05-08T05:53:42.316Z,15.20
2023-05-08T05:56:11.040Z,15.20
2023-05-08T05:58:40.426Z,15.30
2023-05-08T06:01:09.034Z,15.30
2023-05-08T06:03:38.904Z,15.30
2023-05-08T06:06:08.198Z,15.30
2023-05-08T06:08:36.233Z,15.30
2023-05-08T06:11:04.755Z,15.30
2023-05-08T06:13:32.970Z,15.30
2023-05-08T06:16:02.210Z,15.30
2023-05-08T06:18:31.270Z,15.30
2023-05-08T06:21:01.569Z,15.30
2023-05-08T06:23:29.673Z,15.40
2023-05-08T06:25:57.828Z,15.40
2023-05-08T06:28:26.133Z,15.40
2023-05-08T06:30:54.581Z,15.40
2023-05-08T06:33:24.663Z,15.50
2023-05-08T06:35:54.704Z,15.50
2023-05-08T06:38:24.093Z,15.50
2023-05-08T06:40:52.295Z,15.50
2023-05-08T06:43:21.497Z,15.60
2023-05-08T06:45:49.583Z,15.60
2023-05-08T06:48:17.826Z,15.60
2023-05-08T06:50:47.191Z,15.60
2023-05-08T06:53:15.881Z,15.60
2023-05-08T06:55:45.723Z,15.70
2023-05-08T06:58:14.342Z,15.60
2023-05-08T07:00:43.972Z,15.60
2023-05-08T07:03:12.978Z,15.60
2023-05-08T07:05:41.180Z,15.60
2023-05-08T07:08:09.914Z,15.60
2023-05-08T07:10:38.592Z,15.50
2023-05-08T07:13:08.125Z,15.50
2023-05-08T07:15:36.582Z,15.50
2023-05-08T07:18:05.628Z,15.50
2023-05-08T07:20:33.962Z,15.50
2023-05-08T07:23:02.175Z,15.50
2023-05-08T07:25:30.792Z,15.50
2023-05-08T07:28:01.147Z,15.50
2023-05-08T07:30:31.556Z,15.50
2023-05-08T07:32:59.615Z,15.40
2023-05-08T07:35:29.436Z,15.50
2023-05-08T07:37:57.495Z,15.50
2023-05-08T07:40:25.684Z,15.50
2023-05-08T07:42:53.752Z,15.60
2023-05-08T07:45:21.964Z,15.50
2023-05-08T07:47:53.403Z,15.60
2023-05-08T07:50:23.219Z,15.70
2023-05-08T07:52:52.804Z,15.80
2023-05-08T07:55:22.148Z,15.90
2023-05-08T07:57:50.220Z,16.00
2023-05-08T08:00:19.696Z,16.10
2023-05-08T08:02:48.031Z,16.20
2023-05-08T08:05:17.493Z,16.20
2023-05-08T08:07:45.525Z,16.30
2023-05-08T08:10:13.447Z,16.30
2023-05-08T08:12:41.930Z,16.40
2023-05-08T08:15:11.279Z,16.50
2023-05-08T08:17:39.665Z,16.60
2023-05-08T08:20:09.459Z,16.60
2023-05-08T08:22:40.150Z,16.70
2023-05-08T08:25:09.919Z,16.80
2023-05-08T08:27:38.682Z,17.00
2023-05-08T08:30:17.073Z,17.10
2023-05-08T08:32:46.960Z,17.20
2023-05-08T08:35:15.432Z,17.10
2023-05-08T08:37:45.623Z,17.20
2023-05-08T08:40:14.057Z,17.20
2023-05-08T08:42:42.103Z,17.20
2023-05-08T08:45:12.167Z,17.20
2023-05-08T08:47:45.201Z,17.30
2023-05-08T08:50:16.174Z,17.30
2023-05-08T08:52:56.717Z,17.30
2023-05-08T08:55:27.979Z,17.40
2023-05-08T08:58:15.221Z,17.40
2023-05-08T09:00:44.705Z,17.50
2023-05-08T09:03:13.098Z,17.50
2023-05-08T09:05:41.828Z,17.70
2023-05-08T09:08:12.925Z,17.70
2023-05-08T09:10:41.515Z,17.80
2023-05-08T09:13:09.682Z,17.90
2023-05-08T09:15:38.238Z,18.00
2023-05-08T09:18:07.067Z,18.10
2023-05-08T09:20:35.886Z,18.10
2023-05-08T09:23:04.316Z,18.10
2023-05-08T09:25:47.603Z,18.10
2023-05-08T09:28:20.263Z,18.10
2023-05-08T09:30:53.673Z,18.20
2023-05-08T09:33:24.107Z,18.30
2023-05-08T09:35:52.784Z,18.40
2023-05-08T09:38:35.049Z,18.50
2023-05-08T09:41:14.325Z,18.50
2023-05-08T09:43:43.828Z,18.50
2023-05-08T09:46:23.910Z,18.60
2023-05-08T09:48:53.993Z,18.60
2023-05-08T09:51:22.736Z,18.60
2023-05-08T09:53:53.830Z,18.70
2023-05-08T09:56:38.889Z,18.70
2023-05-08T09:59:24.108Z,18.80
2023-05-08T10:01:52.662Z,18.90
2023-05-08T10:04:33.236Z,19.00
2023-05-08T10:07:01.781Z,19.00
2023-05-08T10:09:42.718Z,19.00
2023-05-08T10:12:22.336Z,18.80
2023-05-08T10:14:50.558Z,18.80
2023-05-08T10:17:27.448Z,18.70
2023-05-08T10:20:01.983Z,18.60
2023-05-08T10:22:33.693Z,18.50
2023-05-08T10:25:05.105Z,18.60
2023-05-08T10:27:46.058Z,18.60
2023-05-08T10:30:18.288Z,18.60
2023-05-08T10:32:51.941Z,18.50
2023-05-08T10:35:20.753Z,18.40
2023-05-08T10:37:50.460Z,18.50
2023-05-08T10:40:21.293Z,18.60
2023-05-08T10:42:51.743Z,18.60
2023-05-08T10:45:20.187Z,18.80
2023-05-08T10:48:00.843Z,19.00
2023-05-08T10:50:46.884Z,19.10
2023-05-08T10:53:23.994Z,19.40
2023-05-08T10:55:53.731Z,19.60
2023-05-08T10:58:33.903Z,19.70
2023-05-08T11:01:17.888Z,19.80
2023-05-08T11:03:50.646Z,20.10
2023-05-08T11:06:43.617Z,20.00
2023-05-08T11:09:21.532Z,20.20
2023-05-08T11:12:03.400Z,20.50
2023-05-08T11:14:34.763Z,20.70
2023-05-08T11:17:11.158Z,21.00
2023-05-08T11:19:40.316Z,21.40
2023-05-08T11:22:25.049Z,21.70
2023-05-08T11:25:06.119Z,21.90
2023-05-08T11:27:59.916Z,22.40
2023-05-08T11:30:38.563Z,22.70
2023-05-08T11:33:32.004Z,22.90
2023-05-08T11:36:02.019Z,23.00
2023-05-08T11:38:36.179Z,23.00
2023-05-08T11:41:08.057Z,22.80
2023-05-08T11:44:19.559Z,22.80
2023-05-08T11:46:54.029Z,22.70
2023-05-08T11:49:29.150Z,22.60
2023-05-08T11:52:00.412Z,22.60
2023-05-08T11:54:32.337Z,22.60
2023-05-08T11:57:02.076Z,22.60
2023-05-08T11:59:30.649Z,22.80
2023-05-08T12:02:08.559Z,23.10
2023-05-08T12:04:48.362Z,23.30
2023-05-08T12:07:17.008Z,23.50
2023-05-08T12:09:47.517Z,23.50
2023-05-08T12:12:15.617Z,23.20
2023-05-08T12:14:43.650Z,23.20
2023-05-08T12:17:19.265Z,22.70
2023-05-08T12:19:47.442Z,22.40
2023-05-08T12:22:16.271Z,22.10
2023-05-08T12:24:45.543Z,21.70
2023-05-08T12:27:14.534Z,21.20
2023-05-08T12:29:46.512Z,20.80
2023-05-08T12:32:16.620Z,20.60
2023-05-08T12:34:45.336Z,20.50
2023-05-08T12:37:24.111Z,20.20
2023-05-08T12:39:52.134Z,20.00
2023-05-08T12:42:20.206Z,19.90
2023-05-08T12:44:52.345Z,19.80
2023-05-08T12:47:22.318Z,19.60
2023-05-08T12:49:50.843Z,19.40
2023-05-08T12:52:19.370Z,19.30
2023-05-08T12:54:49.538Z,19.10
2023-05-08T12:57:22.523Z,19.00
2023-05-08T12:59:51.150Z,18.90
2023-05-08T13:02:24.009Z,18.70
2023-05-08T13:04:56.594Z,18.70
2023-05-08T13:07:24.839Z,18.70
2023-05-08T13:10:02.147Z,18.70
2023-05-08T13:12:30.503Z,18.70
2023-05-08T13:14:58.706Z,18.80
2023-05-08T13:17:28.261Z,18.90
2023-05-08T13:19:56.386Z,18.90
2023-05-08T13:22:26.935Z,19.00
2023-05-08T13:24:55.123Z,19.10
2023-05-08T13:27:24.267Z,19.20
2023-05-08T13:29:52.322Z,19.40
2023-05-08T13:32:21.169Z,19.50
2023-05-08T13:34:52.302Z,19.60
2023-05-08T13:37:23.237Z,19.70
2023-05-08T13:39:51.593Z,19.60
2023-05-08T13:42:19.683Z,19.50
2023-05-08T13:44:47.717Z,19.40
2023-05-08T13:47:15.805Z,19.50
2023-05-08T13:49:45.100Z,19.50
2023-05-08T13:52:14.443Z,19.70
2023-05-08T13:54:42.488Z,19.90
2023-05-08T13:57:11.322Z,20.20
2023-05-08T13:59:39.411Z,20.60
2023-05-08T14:02:08.515Z,21.10
2023-05-08T14:04:36.768Z,21.70
2023-05-08T14:07:07.461Z,22.00
2023-05-08T14:09:37.015Z,22.20
2023-05-08T14:12:06.217Z,22.10
2023-05-08T14:14:34.784Z,22.20
2023-05-08T14:17:03.110Z,22.40
2023-05-08T14:19:31.247Z,22.50
2023-05-08T14:21:59.470Z,22.30
2023-05-08T14:24:27.999Z,22.10
2023-05-08T14:26:57.380Z,21.80
2023-05-08T14:29:25.635Z,21.50
2023-05-08T14:31:53.746Z,21.00
2023-05-08T14:34:22.336Z,20.70
2023-05-08T14:36:50.396Z,20.40
2023-05-08T14:39:18.445Z,20.10
2023-05-08T14:41:59.747Z,19.90
2023-05-08T14:44:36.121Z,19.80
2023-05-08T14:47:04.216Z,19.50
2023-05-08T14:52:21.097Z,19.10
2023-05-08T14:54:53.180Z,19.00
2023-05-08T14:57:21.737Z,18.90
2023-05-08T14:59:55.399Z,18.80
2023-05-08T15:02:24.033Z,18.90
2023-05-08T15:04:53.225Z,19.00
2023-05-08T15:07:21.332Z,19.10
2023-05-08T15:09:50.337Z,19.20
2023-05-08T15:12:18.390Z,19.40
2023-05-08T15:14:46.536Z,19.60
2023-05-08T15:17:16.303Z,19.90
2023-05-08T15:19:45.732Z,20.20
2023-05-08T15:22:14.349Z,20.40
2023-05-08T15:24:42.564Z,20.60
2023-05-08T15:27:11.738Z,20.70
2023-05-08T15:29:39.817Z,20.70
2023-05-08T15:32:07.989Z,20.80
2023-05-08T15:34:39.297Z,20.80
2023-05-08T15:37:08.934Z,20.80
2023-05-08T15:39:37.409Z,20.60
2023-05-08T15:42:06.360Z,20.40
2023-05-08T15:44:53.352Z,20.30
2023-05-08T15:47:24.094Z,20.20
2023-05-08T15:49:53.872Z,20.30
2023-05-08T15:52:23.068Z,20.40
2023-05-08T15:54:51.418Z,20.40
2023-05-08T15:57:20.208Z,20.20
2023-05-08T15:59:48.597Z,20.10
2023-05-08T16:02:16.813Z,20.10
2023-05-08T16:04:45.761Z,20.10
2023-05-08T16:07:15.182Z,20.00
2023-05-08T16:09:43.775Z,19.90
2023-05-08T16:12:11.777Z,19.80
2023-05-08T16:14:40.262Z,19.80
2023-05-08T16:17:09.114Z,19.70
2023-05-08T16:19:39.645Z,19.70
2023-05-08T16:22:07.742Z,19.70
2023-05-08T16:24:37.758Z,19.70
2023-05-08T16:27:05.784Z,19.70
2023-05-08T16:29:34.573Z,19.80
2023-05-08T16:32:03.153Z,19.80
2023-05-08T16:34:31.667Z,19.80
2023-05-08T16:36:59.905Z,19.80
2023-05-08T16:39:27.930Z,19.80
2023-05-08T16:41:57.343Z,19.80
2023-05-08T16:44:25.448Z,19.90
2023-05-08T16:46:53.563Z,20.00
2023-05-08T16:49:21.993Z,20.10
2023-05-08T16:51:49.987Z,20.10
2023-05-08T16:54:18.552Z,20.10
2023-05-08T16:56:46.528Z,20.30
2023-05-08T16:59:16.177Z,20.40
2023-05-08T17:01:44.825Z,20.40
2023-05-08T17:04:13.300Z,20.40
2023-05-08T17:06:41.669Z,20.40
2023-05-08T17:09:10.477Z,20.20
2023-05-08T17:11:38.764Z,20.10
2023-05-08T17:14:06.925Z,19.90
2023-05-08T17:16:36.787Z,19.80
2023-05-08T17:19:04.906Z,19.60
2023-05-08T17:21:33.227Z,19.50
2023-05-08T17:24:01.642Z,19.40
2023-05-08T17:26:33.697Z,19.30
2023-05-08T17:29:01.885Z,19.10
2023-05-08T17:31:29.922Z,19.10
2023-05-08T17:34:00.458Z,19.00
2023-05-08T17:36:28.575Z,18.80
2023-05-08T17:38:56.935Z,18.70
2023-05-08T17:41:26.115Z,18.60
2023-05-08T17:43:54.290Z,18.50
2023-05-08T17:46:23.535Z,18.30
2023-05-08T17:48:52.035Z,18.20
2023-05-08T17:51:21.445Z,18.10
2023-05-08T17:53:50.569Z,18.00
2023-05-08T17:56:20.499Z,17.90
2023-05-08T17:58:49.324Z,17.80
2023-05-08T18:01:18.638Z,17.70
2023-05-08T18:03:48.599Z,17.50
2023-05-08T18:06:17.554Z,17.50
2023-05-08T18:08:48.436Z,17.40
2023-05-08T18:11:17.745Z,17.40
2023-05-08T18:13:46.612Z,17.40
2023-05-08T18:16:17.218Z,17.30
2023-05-08T18:18:46.158Z,17.30
2023-05-08T18:21:14.754Z,17.30
2023-05-08T18:23:43.581Z,17.20
2023-05-08T18:26:16.235Z,17.20
2023-05-08T18:28:45.500Z,17.20
2023-05-08T18:31:15.918Z,17.20
2023-05-08T18:33:44.935Z,17.10
2023-05-08T18:36:12.996Z,17.10
2023-05-08T18:38:42.350Z,17.10
2023-05-08T18:41:10.381Z,17.00
2023-05-08T18:43:39.771Z,17.00
2023-05-08T18:46:13.179Z,17.00
2023-05-08T18:48:41.989Z,16.90
2023-05-08T18:51:10.325Z,16.80
2023-05-08T18:53:39.308Z,16.80
2023-05-08T18:56:08.116Z,16.80
2023-05-08T18:58:36.207Z,16.80
2023-05-08T19:01:07.210Z,16.70
2023-05-08T19:03:35.300Z,16.60
2023-05-08T19:06:03.783Z,16.50
2023-05-08T19:08:31.850Z,16.50
2023-05-08T19:11:00.887Z,16.40
2023-05-08T19:13:28.963Z,16.30
2023-05-08T19:15:57.072Z,16.30
2023-05-08T19:18:26.503Z,16.20
2023-05-08T19:20:54.522Z,16.20
2023-05-08T19:23:23.282Z,16.10
2023-05-08T19:25:52.713Z,16.10
2023-05-08T19:28:20.796Z,16.10
2023-05-08T19:30:49.058Z,16.10
2023-05-08T19:33:20.797Z,16.10
2023-05-08T19:35:50.558Z,16.00
2023-05-08T19:38:18.809Z,16.00
2023-05-08T19:40:56.364Z,16.00
2023-05-08T19:43:25.976Z,15.90
2023-05-08T19:45:53.994Z,15.80
2023-05-08T19:48:22.499Z,15.80
2023-05-08T19:50:54.581Z,15.80
2023-05-08T19:53:23.383Z,15.80
2023-05-08T19:55:51.489Z,15.70
2023-05-08T19:58:19.645Z,15.60
2023-05-08T20:03:18.841Z,15.50
2023-05-08T20:05:47.194Z,15.50
2023-05-08T20:08:16.949Z,15.50
2023-05-08T20:10:45.899Z,15.40
2023-05-08T20:13:14.314Z,15.40
2023-05-08T20:15:42.364Z,15.30
2023-05-08T20:18:10.479Z,15.30
2023-05-08T20:20:38.504Z,15.20
2023-05-08T20:23:06.807Z,15.20
2023-05-08T20:25:36.335Z,15.20
2023-05-08T20:28:04.450Z,15.20
2023-05-08T20:30:33.173Z,15.10
2023-05-08T20:33:04.779Z,15.10
2023-05-08T20:35:33.444Z,15.10
2023-05-08T20:38:01.909Z,15.10
2023-05-08T20:40:30.180Z,15.00
2023-05-08T20:42:59.642Z,15.00
2023-05-08T21:00:35.214Z,15.00
2023-05-08T21:32:33.214Z,15.00
2023-05-08T21:35:03.944Z,15.00
2023-05-08T21:37:32.919Z,15.00
2023-05-08T21:40:00.953Z,15.00
2023-05-08T21:42:28.958Z,15.10
2023-05-08T21:44:57.464Z,15.10
2023-05-08T21:47:27.984Z,15.10
2023-05-08T21:49:57.255Z,15.10
2023-05-08T21:52:26.697Z,15.10
2023-05-08T21:54:55.111Z,15.10
2023-05-08T21:57:23.147Z,15.10
2023-05-08T21:59:51.692Z,15.10
2023-05-08T22:02:20.114Z,15.10
2023-05-08T22:04:48.262Z,15.10
2023-05-08T22:07:16.276Z,15.10
2023-05-08T22:09:45.823Z,15.10
2023-05-08T22:12:14.011Z,15.10
2023-05-08T22:14:42.502Z,15.10
2023-05-08T22:17:10.560Z,15.10
2023-05-08T22:19:38.688Z,15.10
2023-05-08T22:22:07.218Z,15.10
2023-05-08T22:24:35.331Z,15.10
2023-05-08T22:27:05.188Z,15.10
2023-05-08T22:29:33.314Z,15.10
2023-05-08T22:32:02.209Z,15.10
2023-05-08T22:34:30.354Z,15.10
2023-05-08T22:36:58.399Z,15.10
2023-05-08T22:39:26.412Z,15.10
2023-05-08T22:41:55.405Z,15.10
2023-05-08T22:44:24.859Z,15.10
2023-05-08T22:46:53.133Z,15.10
2023-05-08T22:49:21.262Z,15.10
2023-05-08T22:51:50.387Z,15.10
2023-05-08T22:54:18.512Z,15.10
2023-05-08T22:56:46.856Z,15.10
2023-05-08T22:59:15.150Z,15.10
2023-05-08T23:01:44.738Z,15.00
2023-05-08T23:04:12.879Z,15.00
2023-05-08T23:06:40.902Z,15.00
2023-05-08T23:09:09.059Z,15.00
2023-05-08T23:11:37.233Z,15.00
2023-05-08T23:14:05.311Z,15.00
2023-05-08T23:16:33.434Z,15.00
2023-05-08T23:19:04.405Z,15.00
2023-05-08T23:21:33.004Z,15.00
2023-05-08T23:24:01.052Z,14.90
2023-05-08T23:26:29.072Z,15.00
2023-05-08T23:28:57.826Z,14.90
2023-05-08T23:31:25.866Z,14.90
2023-05-08T23:33:54.023Z,14.90
2023-05-08T23:36:23.531Z,14.80
2023-05-08T23:38:51.629Z,14.90
2023-05-08T23:41:19.675Z,14.80
2023-05-08T23:43:47.762Z,14.80
2023-05-08T23:46:15.895Z,14.80
2023-05-08T23:48:44.020Z,14.80
2023-05-08T23:51:12.026Z,14.70
2023-05-08T23:53:42.486Z,14.70
2023-05-08T23:56:10.723Z,14.60
2023-05-08T23:58:39.250Z,14.60
